createdAt,value
2023-04-16T00:00:50.541Z,34.83
2023-04-16T00:02:23.595Z,34.79
2023-04-16T00:03:56.857Z,35.03
2023-04-16T00:05:30.320Z,34.98
2023-04-16T00:07:03.398Z,34.71
2023-04-16T00:08:37.532Z,35.02
2023-04-16T00:10:10.638Z,35.08
2023-04-16T00:11:43.723Z,34.95
2023-04-16T00:13:16.776Z,34.91
2023-04-16T00:14:49.907Z,35.10
2023-04-16T00:16:22.866Z,35.44
2023-04-16T00:17:56.136Z,35.11
2023-04-16T00:19:29.169Z,35.52
2023-04-16T00:21:02.085Z,35.17
2023-04-16T00:22:35.466Z,35.28
2023-04-16T00:24:08.653Z,35.07
2023-04-16T00:25:43.080Z,35.27
2023-04-16T00:27:16.141Z,35.39
2023-04-16T00:28:49.064Z,35.01
2023-04-16T00:30:23.280Z,35.23
2023-04-16T00:31:56.694Z,35.48
2023-04-16T00:33:30.407Z,34.95
2023-04-16T00:35:03.463Z,35.52
2023-04-16T00:36:36.847Z,35.57
2023-04-16T00:38:09.836Z,35.51
2023-04-16T00:39:42.751Z,35.72
2023-04-16T00:41:15.807Z,35.70
2023-04-16T00:42:48.811Z,35.54
2023-04-16T00:44:21.847Z,35.48
2023-04-16T00:45:57.529Z,35.57
2023-04-16T00:47:31.525Z,35.53
2023-04-16T00:49:04.967Z,35.48
2023-04-16T00:50:37.972Z,35.68
2023-04-16T00:52:12.396Z,35.91
2023-04-16T00:53:47.111Z,35.81
2023-04-16T00:55:21.713Z,35.61
2023-04-16T00:56:55.088Z,35.87
2023-04-16T00:58:28.958Z,35.72
2023-04-16T01:00:02.984Z,35.79
2023-04-16T01:01:37.084Z,35.47
2023-04-16T01:03:10.763Z,35.58
2023-04-16T01:04:43.749Z,35.71
2023-04-16T01:06:18.458Z,35.76
2023-04-16T01:07:51.863Z,35.82
2023-04-16T01:09:24.858Z,35.75
2023-04-16T01:10:57.729Z,36.11
2023-04-16T01:12:30.954Z,36.03
2023-04-16T01:14:04.524Z,36.17
2023-04-16T01:15:38.043Z,36.16
2023-04-16T01:17:11.063Z,35.91
2023-04-16T01:18:44.400Z,35.86
2023-04-16T01:20:17.470Z,35.74
2023-04-16T01:21:50.829Z,35.99
2023-04-16T01:23:23.925Z,36.28
2023-04-16T01:24:56.770Z,35.88
2023-04-16T01:26:29.995Z,36.26
2023-04-16T01:28:04.348Z,35.84
2023-04-16T01:29:37.828Z,36.11
2023-04-16T01:31:10.988Z,36.20
2023-04-16T01:33:04.470Z,36.07
2023-04-16T01:34:38.023Z,35.82
2023-04-16T01:36:10.994Z,35.88
2023-04-16T01:37:44.001Z,36.03
2023-04-16T01:39:17.593Z,36.04
2023-04-16T01:40:50.636Z,36.40
2023-04-16T01:42:23.551Z,35.85
2023-04-16T01:43:56.742Z,36.11
2023-04-16T01:45:32.450Z,36.12
2023-04-16T01:47:05.608Z,36.15
2023-04-16T01:48:38.913Z,35.87
2023-04-16T01:50:11.996Z,36.01
2023-04-16T01:51:45.629Z,35.62
2023-04-16T01:53:19.023Z,36.09
2023-04-16T01:54:52.452Z,35.53
2023-04-16T01:56:25.640Z,34.95
2023-04-16T01:57:58.695Z,33.45
2023-04-16T01:59:35.374Z,32.07
2023-04-16T02:01:08.946Z,31.55
2023-04-16T02:02:44.156Z,30.56
2023-04-16T02:04:19.143Z,30.09
2023-04-16T02:05:52.637Z,30.25
2023-04-16T02:07:26.234Z,30.21
2023-04-16T02:08:59.049Z,29.22
2023-04-16T02:10:32.264Z,29.01
2023-04-16T02:12:05.774Z,28.02
2023-04-16T02:13:38.913Z,27.78
2023-04-16T02:15:12.852Z,27.54
2023-04-16T02:16:45.936Z,27.21
2023-04-16T02:18:28.199Z,26.68
2023-04-16T02:20:03.614Z,26.73
2023-04-16T02:21:37.118Z,26.37
2023-04-16T02:23:12.209Z,26.40
2023-04-16T02:24:45.382Z,26.09
2023-04-16T02:26:18.542Z,25.73
2023-04-16T02:27:52.594Z,25.54
2023-04-16T02:29:47.079Z,25.40
2023-04-16T02:31:23.731Z,25.17
2023-04-16T02:32:57.026Z,25.19
2023-04-16T02:34:30.406Z,25.24
2023-04-16T02:36:03.353Z,24.87
2023-04-16T02:37:36.322Z,25.11
2023-04-16T02:39:09.839Z,24.53
2023-04-16T02:40:42.959Z,24.63
2023-04-16T02:42:16.548Z,24.50
2023-04-16T02:43:49.562Z,24.58
2023-04-16T02:45:22.629Z,24.02
2023-04-16T02:46:55.651Z,23.99
2023-04-16T02:48:29.013Z,23.85
2023-04-16T02:50:01.970Z,23.78
2023-04-16T02:51:36.302Z,23.71
2023-04-16T02:53:10.977Z,23.28
2023-04-16T02:54:44.158Z,23.33
2023-04-16T02:56:16.982Z,23.21
2023-04-16T02:57:49.859Z,22.80
2023-04-16T02:59:22.969Z,22.97
2023-04-16T03:00:56.454Z,22.84
2023-04-16T03:02:29.471Z,22.78
2023-04-16T03:04:02.553Z,22.73
2023-04-16T03:05:35.267Z,22.48
2023-04-16T03:07:09.619Z,22.42
2023-04-16T03:08:42.472Z,22.25
2023-04-16T03:10:15.185Z,22.11
2023-04-16T03:11:48.013Z,22.02
2023-04-16T03:13:21.978Z,21.89
2023-04-16T03:14:54.972Z,21.77
2023-04-16T03:16:27.935Z,21.79
2023-04-16T03:18:01.143Z,21.76
2023-04-16T03:19:34.414Z,21.64
2023-04-16T03:21:07.290Z,21.55
2023-04-16T03:22:40.901Z,21.83
2023-04-16T03:24:13.915Z,21.74
2023-04-16T03:25:48.353Z,21.47
2023-04-16T03:27:24.090Z,21.61
2023-04-16T03:28:57.753Z,21.35
2023-04-16T03:30:31.004Z,21.68
2023-04-16T03:32:04.439Z,21.54
2023-04-16T03:33:37.842Z,21.63
2023-04-16T03:35:12.023Z,21.51
2023-04-16T03:36:44.981Z,21.55
2023-04-16T03:38:18.507Z,21.05
2023-04-16T03:39:52.742Z,21.12
2023-04-16T03:41:25.787Z,21.47
2023-04-16T03:42:58.570Z,21.22
2023-04-16T03:44:31.989Z,20.71
2023-04-16T03:46:05.205Z,20.77
2023-04-16T03:47:38.179Z,21.28
2023-04-16T03:49:11.794Z,21.48
2023-04-16T03:50:48.697Z,21.10
2023-04-16T03:52:24.240Z,21.05
2023-04-16T03:53:59.156Z,21.07
2023-04-16T03:55:33.526Z,20.87
2023-04-16T03:57:06.551Z,20.62
2023-04-16T03:58:40.595Z,20.64
2023-04-16T04:00:14.641Z,20.58
2023-04-16T04:01:47.516Z,20.32
2023-04-16T04:03:21.272Z,20.52
2023-04-16T04:04:56.279Z,20.39
2023-04-16T04:06:29.552Z,20.48
2023-04-16T04:08:03.488Z,20.57
2023-04-16T04:09:37.618Z,20.66
2023-04-16T04:11:10.590Z,20.67
2023-04-16T04:12:45.192Z,20.55
2023-04-16T04:14:18.865Z,20.55
2023-04-16T04:15:52.270Z,20.70
2023-04-16T04:17:26.615Z,20.75
2023-04-16T04:19:00.690Z,20.72
2023-04-16T04:20:33.702Z,20.69
2023-04-16T04:22:08.521Z,20.89
2023-04-16T04:23:44.000Z,20.71
2023-04-16T04:25:18.213Z,20.86
2023-04-16T04:26:51.254Z,20.86
2023-04-16T04:28:24.702Z,20.78
2023-04-16T04:29:58.352Z,20.96
2023-04-16T04:31:31.561Z,20.82
2023-04-16T04:33:04.764Z,21.04
2023-04-16T04:34:38.069Z,21.12
2023-04-16T04:36:12.936Z,21.11
2023-04-16T04:37:46.253Z,20.85
2023-04-16T04:39:23.354Z,20.65
2023-04-16T04:40:56.896Z,20.25
2023-04-16T04:42:32.440Z,20.08
2023-04-16T04:44:05.189Z,20.28
2023-04-16T04:45:38.250Z,20.07
2023-04-16T04:47:11.582Z,20.49
2023-04-16T04:48:44.616Z,20.34
2023-04-16T04:50:17.821Z,20.52
2023-04-16T04:51:50.748Z,20.32
2023-04-16T04:53:23.828Z,20.32
2023-04-16T04:54:57.457Z,20.13
2023-04-16T04:56:30.379Z,20.19
2023-04-16T04:58:05.056Z,20.46
2023-04-16T04:59:38.336Z,20.40
2023-04-16T05:01:11.433Z,20.80
2023-04-16T05:02:44.459Z,20.61
2023-04-16T05:04:18.212Z,20.57
2023-04-16T05:05:51.307Z,20.16
2023-04-16T05:07:24.311Z,20.40
2023-04-16T05:08:56.911Z,20.17
2023-04-16T05:10:29.767Z,20.37
2023-04-16T05:12:02.829Z,20.21
2023-04-16T05:13:35.756Z,20.29
2023-04-16T05:15:09.360Z,19.74
2023-04-16T05:16:42.304Z,19.76
2023-04-16T05:18:15.437Z,20.21
2023-04-16T05:19:48.610Z,20.29
2023-04-16T05:21:21.382Z,20.31
2023-04-16T05:22:55.654Z,20.09
2023-04-16T05:24:28.829Z,20.14
2023-04-16T05:26:01.780Z,20.18
2023-04-16T05:27:34.619Z,20.04
2023-04-16T05:29:07.390Z,20.26
2023-04-16T05:30:40.672Z,20.20
2023-04-16T05:32:13.934Z,20.19
2023-04-16T05:33:47.066Z,19.92
2023-04-16T05:35:19.927Z,19.83
2023-04-16T05:36:52.929Z,19.86
2023-04-16T05:38:25.939Z,19.70
2023-04-16T05:39:59.147Z,19.77
2023-04-16T05:41:32.075Z,19.92
2023-04-16T05:43:04.911Z,20.13
2023-04-16T05:44:37.942Z,20.18
2023-04-16T05:46:11.275Z,20.47
2023-04-16T05:47:44.421Z,20.38
2023-04-16T05:49:19.200Z,20.10
2023-04-16T05:50:52.434Z,19.88
2023-04-16T05:52:25.352Z,19.78
2023-04-16T05:53:58.031Z,20.03
2023-04-16T05:55:31.074Z,20.33
2023-04-16T05:57:04.193Z,20.22
2023-04-16T05:58:37.192Z,20.31
2023-04-16T06:00:10.012Z,20.47
2023-04-16T06:01:46.103Z,20.21
2023-04-16T06:03:19.355Z,20.20
2023-04-16T06:04:52.300Z,20.07
2023-04-16T06:06:25.014Z,19.49
2023-04-16T06:07:58.077Z,19.59
2023-04-16T06:09:31.165Z,19.63
2023-04-16T06:11:04.283Z,19.65
2023-04-16T06:12:37.264Z,20.23
2023-04-16T06:14:10.300Z,20.31
2023-04-16T06:15:43.168Z,20.19
2023-04-16T06:17:16.866Z,20.00
2023-04-16T06:18:49.814Z,19.80
2023-04-16T06:20:23.518Z,19.49
2023-04-16T06:21:57.628Z,19.54
2023-04-16T06:23:30.645Z,19.53
2023-04-16T06:25:03.419Z,19.47
2023-04-16T06:26:36.239Z,19.86
2023-04-16T06:28:09.369Z,20.20
2023-04-16T06:29:42.379Z,20.54
2023-04-16T06:31:15.063Z,20.42
2023-04-16T06:32:50.061Z,20.73
2023-04-16T06:34:23.349Z,21.00
2023-04-16T06:35:56.924Z,20.95
2023-04-16T06:37:30.115Z,21.22
2023-04-16T06:39:03.073Z,20.87
2023-04-16T06:40:37.821Z,21.19
2023-04-16T06:42:10.799Z,21.37
2023-04-16T06:43:44.722Z,21.07
2023-04-16T06:45:17.639Z,21.40
2023-04-16T06:46:51.896Z,21.09
2023-04-16T06:48:24.822Z,21.41
2023-04-16T06:49:57.585Z,21.37
2023-04-16T06:51:30.721Z,21.52
2023-04-16T06:53:04.122Z,21.67
2023-04-16T06:54:37.121Z,21.55
2023-04-16T06:56:09.825Z,21.19
2023-04-16T06:57:43.057Z,21.42
2023-04-16T06:59:16.016Z,21.47
2023-04-16T07:00:49.671Z,21.76
2023-04-16T07:02:22.826Z,21.45
2023-04-16T07:03:56.374Z,21.65
2023-04-16T07:05:29.613Z,21.75
2023-04-16T07:07:03.112Z,21.43
2023-04-16T07:08:36.269Z,21.68
2023-04-16T07:10:10.196Z,22.01
2023-04-16T07:11:44.446Z,21.93
2023-04-16T07:13:18.911Z,22.30
2023-04-16T07:14:52.063Z,22.12
2023-04-16T07:16:25.266Z,22.15
2023-04-16T07:17:58.361Z,22.15
2023-04-16T07:19:33.089Z,21.93
2023-04-16T07:21:06.090Z,22.12
2023-04-16T07:22:39.158Z,22.30
2023-04-16T07:24:12.184Z,21.67
2023-04-16T07:25:46.025Z,21.78
2023-04-16T07:27:18.931Z,21.92
2023-04-16T07:28:52.018Z,21.75
2023-04-16T07:30:25.083Z,21.94
2023-04-16T07:31:58.349Z,21.95
2023-04-16T07:33:31.500Z,22.00
2023-04-16T07:35:04.403Z,22.13
2023-04-16T07:36:37.281Z,22.22
2023-04-16T07:38:10.347Z,22.22
2023-04-16T07:39:42.998Z,22.14
2023-04-16T07:41:16.115Z,22.23
2023-04-16T07:42:49.430Z,22.18
2023-04-16T07:44:22.506Z,22.19
2023-04-16T07:45:55.480Z,21.97
2023-04-16T07:47:28.829Z,21.85
2023-04-16T07:49:01.849Z,21.97
2023-04-16T07:50:34.480Z,21.73
2023-04-16T07:52:07.252Z,22.44
2023-04-16T07:53:40.089Z,22.11
2023-04-16T07:55:13.022Z,21.71
2023-04-16T07:56:45.677Z,21.90
2023-04-16T07:58:18.815Z,21.76
2023-04-16T07:59:55.988Z,22.02
2023-04-16T08:01:28.863Z,21.62
2023-04-16T08:03:01.785Z,21.69
2023-04-16T08:04:34.971Z,21.80
2023-04-16T08:06:08.165Z,21.75
2023-04-16T08:07:41.269Z,22.18
2023-04-16T08:09:14.274Z,22.07
2023-04-16T08:10:47.218Z,21.73
2023-04-16T08:12:21.298Z,21.97
2023-04-16T08:13:54.444Z,21.66
2023-04-16T08:15:27.825Z,22.00
2023-04-16T08:17:00.966Z,21.76
2023-04-16T08:18:34.019Z,21.72
2023-04-16T08:20:07.534Z,21.70
2023-04-16T08:21:41.100Z,21.60
2023-04-16T08:23:14.192Z,21.88
2023-04-16T08:24:46.987Z,21.53
2023-04-16T08:26:20.098Z,21.83
2023-04-16T08:27:53.043Z,21.62
2023-04-16T08:29:26.651Z,21.73
2023-04-16T08:30:59.679Z,21.62
2023-04-16T08:32:32.706Z,22.03
2023-04-16T08:34:06.446Z,21.88
2023-04-16T08:35:39.367Z,21.93
2023-04-16T08:37:12.356Z,22.00
2023-04-16T08:38:45.601Z,21.80
2023-04-16T08:40:18.475Z,22.03
2023-04-16T08:41:54.279Z,21.80
2023-04-16T08:43:27.817Z,22.08
2023-04-16T08:45:08.928Z,21.82
2023-04-16T08:46:43.408Z,21.97
2023-04-16T08:48:16.863Z,21.58
2023-04-16T08:49:50.178Z,21.96
2023-04-16T08:51:24.416Z,21.53
2023-04-16T08:53:11.368Z,21.73
2023-04-16T08:54:56.906Z,21.62
2023-04-16T08:56:32.731Z,21.45
2023-04-16T08:58:24.074Z,21.52
2023-04-16T08:59:58.331Z,21.61
2023-04-16T09:01:33.113Z,21.62
2023-04-16T09:03:07.037Z,21.89
2023-04-16T09:04:41.694Z,21.46
2023-04-16T09:06:16.635Z,21.81
2023-04-16T09:07:49.487Z,21.54
2023-04-16T09:09:22.912Z,21.70
2023-04-16T09:10:59.912Z,21.91
2023-04-16T09:12:33.689Z,21.52
2023-04-16T09:14:11.520Z,21.64
2023-04-16T09:15:44.834Z,21.73
2023-04-16T09:17:19.270Z,22.02
2023-04-16T09:18:53.127Z,21.79
2023-04-16T09:20:26.461Z,21.70
2023-04-16T09:21:59.622Z,21.69
2023-04-16T09:23:32.406Z,21.48
2023-04-16T09:25:06.051Z,21.54
2023-04-16T09:26:39.051Z,21.55
2023-04-16T09:28:12.076Z,21.37
2023-04-16T09:29:44.792Z,21.74
2023-04-16T09:31:20.093Z,21.22
2023-04-16T09:33:12.154Z,21.82
2023-04-16T09:35:02.203Z,21.96
2023-04-16T09:36:41.637Z,21.58
2023-04-16T09:38:14.897Z,21.53
2023-04-16T09:40:01.590Z,21.55
2023-04-16T09:41:39.902Z,21.90
2023-04-16T09:43:19.530Z,21.65
2023-04-16T09:44:53.613Z,21.67
2023-04-16T09:46:32.069Z,21.73
2023-04-16T09:48:06.314Z,21.64
2023-04-16T09:49:44.737Z,21.50
2023-04-16T09:51:17.614Z,21.43
2023-04-16T09:52:51.907Z,21.58
2023-04-16T09:54:26.927Z,21.35
2023-04-16T09:56:05.889Z,21.37
2023-04-16T09:57:39.333Z,21.40
2023-04-16T09:59:22.585Z,21.64
2023-04-16T10:01:19.137Z,21.56
2023-04-16T10:03:04.983Z,21.62
2023-04-16T10:04:53.475Z,21.23
2023-04-16T10:06:27.821Z,21.37
2023-04-16T10:08:04.414Z,21.49
2023-04-16T10:09:40.885Z,21.52
2023-04-16T10:11:14.473Z,21.43
2023-04-16T10:12:47.859Z,21.37
2023-04-16T10:14:20.782Z,21.30
2023-04-16T10:15:55.842Z,21.41
2023-04-16T10:17:32.210Z,21.51
2023-04-16T10:19:06.032Z,21.58
2023-04-16T10:20:39.530Z,21.21
2023-04-16T10:22:13.091Z,21.45
2023-04-16T10:23:47.689Z,21.52
2023-04-16T10:25:22.021Z,21.83
2023-04-16T10:26:56.073Z,21.36
2023-04-16T10:28:30.008Z,21.31
2023-04-16T10:30:04.149Z,21.40
2023-04-16T10:31:40.322Z,21.66
2023-04-16T10:33:14.602Z,21.46
2023-04-16T10:34:48.479Z,21.38
2023-04-16T10:36:29.276Z,21.39
2023-04-16T10:38:28.911Z,21.66
2023-04-16T10:40:02.189Z,21.67
2023-04-16T10:41:35.195Z,21.59
2023-04-16T10:43:08.419Z,21.93
2023-04-16T10:44:45.189Z,21.93
2023-04-16T10:46:24.588Z,21.66
2023-04-16T10:47:58.931Z,21.54
2023-04-16T10:49:31.898Z,21.71
2023-04-16T10:51:06.042Z,21.40
2023-04-16T10:52:40.882Z,21.62
2023-04-16T10:54:14.826Z,22.05
2023-04-16T10:56:04.721Z,21.94
2023-04-16T10:57:37.818Z,21.84
2023-04-16T10:59:11.661Z,21.82
2023-04-16T11:00:53.642Z,22.03
2023-04-16T11:02:29.550Z,22.05
2023-04-16T11:04:23.305Z,21.90
2023-04-16T11:06:13.379Z,22.07
2023-04-16T11:07:50.041Z,21.86
2023-04-16T11:09:48.104Z,21.91
2023-04-16T11:11:21.709Z,22.05
2023-04-16T11:12:56.499Z,22.01
2023-04-16T11:14:30.155Z,22.20
2023-04-16T11:16:07.455Z,21.91
2023-04-16T11:17:47.621Z,21.97
2023-04-16T11:19:20.774Z,22.10
2023-04-16T11:20:53.777Z,22.03
2023-04-16T11:22:27.709Z,22.15
2023-04-16T11:24:00.930Z,22.13
2023-04-16T11:25:36.565Z,22.36
2023-04-16T11:27:09.698Z,21.94
2023-04-16T11:28:43.093Z,22.33
2023-04-16T11:30:16.228Z,22.31
2023-04-16T11:31:55.915Z,22.54
2023-04-16T11:33:32.035Z,22.17
2023-04-16T11:35:19.843Z,22.04
2023-04-16T11:36:53.032Z,22.34
2023-04-16T11:38:37.824Z,22.25
2023-04-16T11:40:11.765Z,22.54
2023-04-16T11:41:51.566Z,22.37
2023-04-16T11:43:26.945Z,22.43
2023-04-16T11:45:01.097Z,22.54
2023-04-16T11:46:43.713Z,22.40
2023-04-16T11:48:17.604Z,22.04
2023-04-16T11:49:51.872Z,22.27
2023-04-16T11:51:25.181Z,22.28
2023-04-16T11:53:11.653Z,22.39
2023-04-16T11:54:51.646Z,22.10
2023-04-16T11:56:29.924Z,22.39
2023-04-16T11:58:13.547Z,22.51
2023-04-16T12:00:02.012Z,22.42
2023-04-16T12:01:51.991Z,22.35
2023-04-16T12:03:41.594Z,22.28
2023-04-16T12:05:35.887Z,22.37
2023-04-16T12:07:12.282Z,22.58
2023-04-16T12:08:45.949Z,22.42
2023-04-16T12:10:21.395Z,22.54
2023-04-16T12:11:54.465Z,22.79
2023-04-16T12:13:27.495Z,22.70
2023-04-16T12:15:03.515Z,22.63
2023-04-16T12:16:37.624Z,22.55
2023-04-16T12:18:11.558Z,22.60
2023-04-16T12:20:11.580Z,22.76
2023-04-16T12:21:46.972Z,22.64
2023-04-16T12:23:31.346Z,22.85
2023-04-16T12:25:08.462Z,22.73
2023-04-16T12:26:53.593Z,22.60
2023-04-16T12:28:41.961Z,22.94
2023-04-16T12:30:16.900Z,22.88
2023-04-16T12:31:51.919Z,22.91
2023-04-16T12:33:29.999Z,22.99
2023-04-16T12:35:06.706Z,23.15
2023-04-16T12:36:48.428Z,23.09
2023-04-16T12:38:24.057Z,23.13
2023-04-16T12:39:58.626Z,23.06
2023-04-16T12:41:32.451Z,22.99
2023-04-16T12:43:06.527Z,23.04
2023-04-16T12:44:40.013Z,22.78
2023-04-16T12:46:13.674Z,23.00
2023-04-16T12:47:47.976Z,22.87
2023-04-16T12:49:21.529Z,22.89
2023-04-16T12:50:55.585Z,22.90
2023-04-16T12:52:29.698Z,23.09
2023-04-16T12:54:04.991Z,23.28
2023-04-16T12:55:38.274Z,23.01
2023-04-16T12:57:12.322Z,23.00
2023-04-16T12:58:45.794Z,23.29
2023-04-16T13:00:20.059Z,23.46
2023-04-16T13:01:53.937Z,23.60
2023-04-16T13:03:27.589Z,23.40
2023-04-16T13:05:01.157Z,23.24
2023-04-16T13:06:37.137Z,23.17
2023-04-16T13:08:10.113Z,23.14
2023-04-16T13:09:44.016Z,23.30
2023-04-16T13:11:17.274Z,23.66
2023-04-16T13:12:50.246Z,23.30
2023-04-16T13:14:23.273Z,23.61
2023-04-16T13:15:55.926Z,23.28
2023-04-16T13:17:28.906Z,23.12
2023-04-16T13:19:01.680Z,23.16
2023-04-16T13:20:34.565Z,23.20
2023-04-16T13:22:07.600Z,23.36
2023-04-16T13:23:40.793Z,23.57
2023-04-16T13:25:13.642Z,23.34
2023-04-16T13:26:46.938Z,23.55
2023-04-16T13:28:19.919Z,23.36
2023-04-16T13:29:52.955Z,23.48
2023-04-16T13:31:26.305Z,23.54
2023-04-16T13:32:59.630Z,23.72
2023-04-16T13:34:33.096Z,23.82
2023-04-16T13:36:06.841Z,23.63
2023-04-16T13:37:39.939Z,23.74
2023-04-16T13:39:12.769Z,23.63
2023-04-16T13:40:45.658Z,23.81
2023-04-16T13:42:18.459Z,23.67
2023-04-16T13:43:51.312Z,23.70
2023-04-16T13:45:24.577Z,23.79
2023-04-16T13:46:57.854Z,23.75
2023-04-16T13:48:31.170Z,23.96
2023-04-16T13:50:04.681Z,23.61
2023-04-16T13:51:37.851Z,23.60
2023-04-16T13:53:11.160Z,23.92
2023-04-16T13:54:44.324Z,23.96
2023-04-16T13:56:25.856Z,23.96
2023-04-16T13:57:59.023Z,23.90
2023-04-16T13:59:32.461Z,24.29
2023-04-16T14:01:06.253Z,24.29
2023-04-16T14:02:40.286Z,24.44
2023-04-16T14:04:13.587Z,24.33
2023-04-16T14:05:46.880Z,24.43
2023-04-16T14:07:23.012Z,24.49
2023-04-16T14:08:56.128Z,24.57
2023-04-16T14:10:29.430Z,24.68
2023-04-16T14:12:03.152Z,24.80
2023-04-16T14:13:37.378Z,24.75
2023-04-16T14:15:11.102Z,24.69
2023-04-16T14:16:44.911Z,24.62
2023-04-16T14:18:18.128Z,24.99
2023-04-16T14:19:51.453Z,25.17
2023-04-16T14:21:24.461Z,24.99
2023-04-16T14:22:57.694Z,25.34
2023-04-16T14:24:31.005Z,25.22
2023-04-16T14:26:04.523Z,25.37
2023-04-16T14:27:37.583Z,25.43
2023-04-16T14:29:10.753Z,25.46
2023-04-16T14:30:44.003Z,25.68
2023-04-16T14:32:17.432Z,25.90
2023-04-16T14:33:50.376Z,25.87
2023-04-16T14:35:24.054Z,25.89
2023-04-16T14:36:57.053Z,25.99
2023-04-16T14:38:30.432Z,25.83
2023-04-16T14:40:08.954Z,26.06
2023-04-16T14:41:42.004Z,26.13
2023-04-16T14:43:15.506Z,26.27
2023-04-16T14:44:48.946Z,26.47
2023-04-16T14:46:22.130Z,26.52
2023-04-16T14:47:55.455Z,26.64
2023-04-16T14:49:28.702Z,26.77
2023-04-16T14:51:01.883Z,26.95
2023-04-16T14:52:34.994Z,26.99
2023-04-16T14:54:08.629Z,27.33
2023-04-16T14:55:41.794Z,27.58
2023-04-16T14:57:14.835Z,27.76
2023-04-16T14:58:47.792Z,27.92
2023-04-16T15:00:20.998Z,28.29
2023-04-16T15:01:56.398Z,28.49
2023-04-16T15:03:31.455Z,28.71
2023-04-16T15:05:04.926Z,28.90
2023-04-16T15:06:38.451Z,29.10
2023-04-16T15:08:12.005Z,29.13
2023-04-16T15:09:45.789Z,29.41
2023-04-16T15:11:18.750Z,29.67
2023-04-16T15:12:51.925Z,29.72
2023-04-16T15:14:24.985Z,29.85
2023-04-16T15:15:57.677Z,29.79
2023-04-16T15:17:30.597Z,30.21
2023-04-16T15:19:05.136Z,30.33
2023-04-16T15:20:38.306Z,30.33
2023-04-16T15:22:11.256Z,30.47
2023-04-16T15:23:44.259Z,30.86
2023-04-16T15:25:17.774Z,31.16
2023-04-16T15:26:51.552Z,31.57
2023-04-16T15:28:25.245Z,31.73
2023-04-16T15:29:58.287Z,31.98
2023-04-16T15:31:31.238Z,31.77
2023-04-16T15:33:04.697Z,32.24
2023-04-16T15:34:37.664Z,32.06
2023-04-16T15:36:11.572Z,32.36
2023-04-16T15:37:44.646Z,32.57
2023-04-16T15:39:17.728Z,32.68
2023-04-16T15:40:50.826Z,32.70
2023-04-16T15:42:24.612Z,32.85
2023-04-16T15:43:58.089Z,33.01
2023-04-16T15:45:32.084Z,33.17
2023-04-16T15:47:06.728Z,33.12
2023-04-16T15:48:39.636Z,33.22
2023-04-16T15:50:12.484Z,33.46
2023-04-16T15:51:45.369Z,33.83
2023-04-16T15:53:18.522Z,33.69
2023-04-16T15:54:51.654Z,33.70
2023-04-16T15:56:26.179Z,33.75
2023-04-16T15:57:59.520Z,33.70
2023-04-16T15:59:33.196Z,33.96
2023-04-16T16:01:06.556Z,34.26
2023-04-16T16:02:40.874Z,34.11
2023-04-16T16:04:14.157Z,34.38
2023-04-16T16:05:48.669Z,34.11
2023-04-16T16:07:21.892Z,34.27
2023-04-16T16:08:55.482Z,34.73
2023-04-16T16:10:28.604Z,34.86
2023-04-16T16:12:02.213Z,34.68
2023-04-16T16:13:37.230Z,35.20
2023-04-16T16:15:11.425Z,35.16
2023-04-16T16:16:44.511Z,35.56
2023-04-16T16:18:17.911Z,35.38
2023-04-16T16:19:52.629Z,35.45
2023-04-16T16:21:26.525Z,35.93
2023-04-16T16:22:59.501Z,35.96
2023-04-16T16:24:32.534Z,36.39
2023-04-16T16:26:06.602Z,36.41
2023-04-16T16:27:40.918Z,36.27
2023-04-16T16:29:14.367Z,36.51
2023-04-16T16:30:48.049Z,36.34
2023-04-16T16:32:21.084Z,36.71
2023-04-16T16:33:54.277Z,36.70
2023-04-16T16:35:27.279Z,37.01
2023-04-16T16:37:00.334Z,37.24
2023-04-16T16:38:33.466Z,37.29
2023-04-16T16:40:07.974Z,37.52
2023-04-16T16:41:43.819Z,37.44
2023-04-16T16:43:17.377Z,37.76
2023-04-16T16:44:50.406Z,37.62
2023-04-16T16:46:23.335Z,37.86
2023-04-16T16:47:57.001Z,37.80
2023-04-16T16:49:30.128Z,38.02
2023-04-16T16:51:03.011Z,38.15
2023-04-16T16:52:36.596Z,38.31
2023-04-16T16:54:09.795Z,38.30
2023-04-16T16:55:43.104Z,38.36
2023-04-16T16:57:16.269Z,38.33
2023-04-16T16:58:49.505Z,38.36
2023-04-16T17:00:23.190Z,38.40
2023-04-16T17:01:57.074Z,38.83
2023-04-16T17:03:30.016Z,38.85
2023-04-16T17:05:02.983Z,38.96
2023-04-16T17:06:36.390Z,38.96
2023-04-16T17:08:09.460Z,38.81
2023-04-16T17:09:42.350Z,39.04
2023-04-16T17:11:18.656Z,38.87
2023-04-16T17:12:52.180Z,39.10
2023-04-16T17:14:25.490Z,39.27
2023-04-16T17:15:58.923Z,39.14
2023-04-16T17:17:32.862Z,39.20
2023-04-16T17:19:05.974Z,39.18
2023-04-16T17:20:39.257Z,39.14
2023-04-16T17:22:12.277Z,39.76
2023-04-16T17:23:44.997Z,39.26
2023-04-16T17:25:17.973Z,39.79
2023-04-16T17:26:50.948Z,39.75
2023-04-16T17:28:23.738Z,39.31
2023-04-16T17:30:00.354Z,39.49
2023-04-16T17:31:33.322Z,39.70
2023-04-16T17:33:06.936Z,39.44
2023-04-16T17:34:39.893Z,39.73
2023-04-16T17:36:13.026Z,39.93
2023-04-16T17:37:46.004Z,39.69
2023-04-16T17:39:19.653Z,39.81
2023-04-16T17:40:52.726Z,40.16
2023-04-16T17:42:26.018Z,39.78
2023-04-16T17:43:59.900Z,40.03
2023-04-16T17:45:34.165Z,40.27
2023-04-16T17:47:07.272Z,39.96
2023-04-16T17:48:40.561Z,40.00
2023-04-16T17:50:13.585Z,40.47
2023-04-16T17:51:47.107Z,39.93
2023-04-16T17:53:21.087Z,40.59
2023-04-16T17:55:00.419Z,40.20
2023-04-16T17:56:33.334Z,40.67
2023-04-16T17:58:06.706Z,40.52
2023-04-16T17:59:39.834Z,40.52
2023-04-16T18:01:12.475Z,40.56
2023-04-16T18:02:45.735Z,40.68
2023-04-16T18:04:19.426Z,40.32
2023-04-16T18:05:52.636Z,40.67
2023-04-16T18:07:25.722Z,40.44
2023-04-16T18:08:59.110Z,41.06
2023-04-16T18:10:33.312Z,41.20
2023-04-16T18:12:07.520Z,40.70
2023-04-16T18:13:41.079Z,40.84
2023-04-16T18:15:13.868Z,41.24
2023-04-16T18:16:47.261Z,40.90
2023-04-16T18:18:21.592Z,40.94
2023-04-16T18:19:54.771Z,41.38
2023-04-16T18:21:27.853Z,40.91
2023-04-16T18:23:01.704Z,40.84
2023-04-16T18:24:36.775Z,41.31
2023-04-16T18:26:11.057Z,41.17
2023-04-16T18:27:45.664Z,41.46
2023-04-16T18:29:22.502Z,41.04
2023-04-16T18:30:59.162Z,41.05
2023-04-16T18:32:33.269Z,41.30
2023-04-16T18:34:07.369Z,41.61
2023-04-16T18:35:41.079Z,41.41
2023-04-16T18:37:13.927Z,41.47
2023-04-16T18:38:59.355Z,41.50
2023-04-16T18:40:37.516Z,41.32
2023-04-16T18:42:10.580Z,41.65
2023-04-16T18:43:43.544Z,41.64
2023-04-16T18:45:21.641Z,41.70
2023-04-16T18:46:54.972Z,41.76
2023-04-16T18:48:28.123Z,42.08
2023-04-16T18:50:01.045Z,41.92
2023-04-16T18:51:34.859Z,41.82
2023-04-16T18:53:07.685Z,42.21
2023-04-16T18:54:41.368Z,42.36
2023-04-16T18:56:14.042Z,42.45
2023-04-16T18:57:47.035Z,42.56
2023-04-16T18:59:19.829Z,42.47
2023-04-16T19:00:58.799Z,42.59
2023-04-16T19:02:31.818Z,42.76
2023-04-16T19:04:05.139Z,42.67
2023-04-16T19:05:37.985Z,43.07
2023-04-16T19:07:10.849Z,43.24
2023-04-16T19:08:43.808Z,42.67
2023-04-16T19:10:17.002Z,43.07
2023-04-16T19:11:50.842Z,42.85
2023-04-16T19:13:23.877Z,43.15
2023-04-16T19:14:56.552Z,43.29
2023-04-16T19:16:30.015Z,43.33
2023-04-16T19:18:02.968Z,43.15
2023-04-16T19:19:36.320Z,43.48
2023-04-16T19:21:11.099Z,43.41
2023-04-16T19:22:44.235Z,43.47
2023-04-16T19:24:17.298Z,43.43
2023-04-16T19:25:50.030Z,43.53
2023-04-16T19:27:22.951Z,43.48
2023-04-16T19:28:56.478Z,44.00
2023-04-16T19:30:30.026Z,43.59
2023-04-16T19:32:03.253Z,44.27
2023-04-16T19:33:36.662Z,44.09
2023-04-16T19:35:10.050Z,44.28
2023-04-16T19:36:42.964Z,44.29
2023-04-16T19:38:15.990Z,44.44
2023-04-16T19:39:48.857Z,44.27
2023-04-16T19:41:21.571Z,44.21
2023-04-16T19:42:55.147Z,44.62
2023-04-16T19:44:28.223Z,44.62
2023-04-16T19:46:01.225Z,44.82
2023-04-16T19:47:34.377Z,44.44
2023-04-16T19:49:07.685Z,44.72
2023-04-16T19:50:43.912Z,44.53
2023-04-16T19:52:17.194Z,45.16
2023-04-16T19:53:50.280Z,45.08
2023-04-16T19:55:23.428Z,45.07
2023-04-16T19:56:57.434Z,45.15
2023-04-16T19:58:30.290Z,44.92
2023-04-16T20:00:03.011Z,45.12
2023-04-16T20:01:37.153Z,45.35
2023-04-16T20:03:11.400Z,45.56
2023-04-16T20:04:44.913Z,45.58
2023-04-16T20:06:18.034Z,46.13
2023-04-16T20:07:52.599Z,46.15
2023-04-16T20:09:26.011Z,45.96
2023-04-16T20:10:58.898Z,46.35
2023-04-16T20:12:31.555Z,46.12
2023-04-16T20:14:04.577Z,46.31
2023-04-16T20:15:38.259Z,46.47